sensor_id;sensor_type;location;lat;lon;timestamp;pressure;altitude;pressure_sealevel;temperature;humidity
24154;BME280;12312;53.362;-1.518;2023-04-06T00:02:36;98824.72;;;9.82;100.00
24154;BME280;12312;53.362;-1.518;2023-04-06T00:05:21;98816.91;;;9.68;100.00
24154;BME280;12312;53.362;-1.518;2023-04-06T00:08:06;98830.78;;;9.60;100.00
24154;BME280;12312;53.362;-1.518;2023-04-06T00:10:51;98815.47;;;9.64;100.00
24154;BME280;12312;53.362;-1.518;2023-04-06T00:13:35;98812.13;;;9.73;100.00
24154;BME280;12312;53.362;-1.518;2023-04-06T00:16:19;98801.66;;;9.59;100.00
24154;BME280;12312;53.362;-1.518;2023-04-06T00:19:04;98812.06;;;9.62;100.00
24154;BME280;12312;53.362;-1.518;2023-04-06T00:21:47;98800.97;;;9.68;100.00
24154;BME280;12312;53.362;-1.518;2023-04-06T00:24:32;98797.84;;;9.63;100.00
24154;BME280;12312;53.362;-1.518;2023-04-06T00:27:16;98790.75;;;9.74;100.00
24154;BME280;12312;53.362;-1.518;2023-04-06T00:29:59;98790.97;;;9.71;100.00
24154;BME280;12312;53.362;-1.518;2023-04-06T00:32:43;98788.66;;;9.67;100.00
24154;BME280;12312;53.362;-1.518;2023-04-06T00:35:28;98790.75;;;9.74;100.00
24154;BME280;12312;53.362;-1.518;2023-04-06T00:38:12;98778.66;;;9.70;100.00
24154;BME280;12312;53.362;-1.518;2023-04-06T00:40:57;98787.03;;;9.88;100.00
24154;BME280;12312;53.362;-1.518;2023-04-06T00:43:41;98789.34;;;9.81;100.00
24154;BME280;12312;53.362;-1.518;2023-04-06T00:46:25;98779.81;;;9.90;100.00
24154;BME280;12312;53.362;-1.518;2023-04-06T00:49:09;98775.09;;;9.93;100.00
24154;BME280;12312;53.362;-1.518;2023-04-06T00:51:53;98776.13;;;9.69;100.00
24154;BME280;12312;53.362;-1.518;2023-04-06T00:54:38;98771.28;;;9.63;100.00
24154;BME280;12312;53.362;-1.518;2023-04-06T00:57:22;98769.13;;;9.79;100.00
24154;BME280;12312;53.362;-1.518;2023-04-06T01:00:07;98767.50;;;9.89;100.00
24154;BME280;12312;53.362;-1.518;2023-04-06T01:02:51;98765.91;;;9.97;100.00
24154;BME280;12312;53.362;-1.518;2023-04-06T01:05:36;98757.69;;;9.78;100.00
24154;BME280;12312;53.362;-1.518;2023-04-06T01:08:24;98754.66;;;9.94;100.00
24154;BME280;12312;53.362;-1.518;2023-04-06T01:11:09;98750.06;;;9.85;100.00
24154;BME280;12312;53.362;-1.518;2023-04-06T01:13:54;98749.59;;;9.80;100.00
24154;BME280;12312;53.362;-1.518;2023-04-06T01:16:38;98751.34;;;9.68;100.00
24154;BME280;12312;53.362;-1.518;2023-04-06T01:19:22;98747.50;;;9.61;100.00
24154;BME280;12312;53.362;-1.518;2023-04-06T01:22:07;98743.22;;;9.59;100.00
24154;BME280;12312;53.362;-1.518;2023-04-06T01:24:52;98743.22;;;9.59;100.00
24154;BME280;12312;53.362;-1.518;2023-04-06T01:27:36;98742.75;;;9.65;100.00
24154;BME280;12312;53.362;-1.518;2023-04-06T01:30:20;98741.47;;;9.70;100.00
24154;BME280;12312;53.362;-1.518;2023-04-06T01:33:04;98739.66;;;9.82;100.00
24154;BME280;12312;53.362;-1.518;2023-04-06T01:35:48;98733.75;;;9.78;100.00
24154;BME280;12312;53.362;-1.518;2023-04-06T01:38:32;98719.13;;;9.73;100.00
24154;BME280;12312;53.362;-1.518;2023-04-06T01:41:16;98715.59;;;9.72;100.00
24154;BME280;12312;53.362;-1.518;2023-04-06T01:44:01;98712.72;;;9.75;100.00
24154;BME280;12312;53.362;-1.518;2023-04-06T01:46:45;98711.66;;;9.78;100.00
24154;BME280;12312;53.362;-1.518;2023-04-06T01:49:29;98714.06;;;9.81;100.00
24154;BME280;12312;53.362;-1.518;2023-04-06T01:52:14;98709.00;;;9.78;100.00
24154;BME280;12312;53.362;-1.518;2023-04-06T01:54:59;98702.47;;;9.82;100.00
24154;BME280;12312;53.362;-1.518;2023-04-06T01:57:44;98701.97;;;9.66;100.00
24154;BME280;12312;53.362;-1.518;2023-04-06T02:00:28;98692.06;;;9.79;100.00
24154;BME280;12312;53.362;-1.518;2023-04-06T02:03:12;98701.97;;;9.88;100.00
24154;BME280;12312;53.362;-1.518;2023-04-06T02:05:57;98700.31;;;9.87;100.00
24154;BME280;12312;53.362;-1.518;2023-04-06T02:08:41;98695.00;;;9.87;100.00
24154;BME280;12312;53.362;-1.518;2023-04-06T02:11:25;98687.13;;;9.85;100.00
24154;BME280;12312;53.362;-1.518;2023-04-06T02:14:09;98676.16;;;10.01;100.00
24154;BME280;12312;53.362;-1.518;2023-04-06T02:16:56;98676.84;;;10.03;100.00
24154;BME280;12312;53.362;-1.518;2023-04-06T02:19:42;98676.88;;;9.92;100.00
24154;BME280;12312;53.362;-1.518;2023-04-06T02:22:26;98660.69;;;9.95;100.00
24154;BME280;12312;53.362;-1.518;2023-04-06T02:25:10;98659.22;;;9.91;100.00
24154;BME280;12312;53.362;-1.518;2023-04-06T02:27:55;98656.59;;;9.80;100.00
24154;BME280;12312;53.362;-1.518;2023-04-06T02:30:39;98650.28;;;9.81;100.00
24154;BME280;12312;53.362;-1.518;2023-04-06T02:33:23;98661.88;;;9.91;100.00
24154;BME280;12312;53.362;-1.518;2023-04-06T02:36:08;98653.31;;;9.98;100.00
24154;BME280;12312;53.362;-1.518;2023-04-06T02:38:52;98641.84;;;10.09;100.00
24154;BME280;12312;53.362;-1.518;2023-04-06T02:41:38;98633.63;;;10.01;100.00
24154;BME280;12312;53.362;-1.518;2023-04-06T02:44:22;98644.72;;;10.06;100.00
24154;BME280;12312;53.362;-1.518;2023-04-06T02:47:07;98640.41;;;9.83;100.00
24154;BME280;12312;53.362;-1.518;2023-04-06T02:49:51;98633.16;;;10.07;100.00
24154;BME280;12312;53.362;-1.518;2023-04-06T02:52:35;98633.16;;;10.07;100.00
24154;BME280;12312;53.362;-1.518;2023-04-06T02:55:19;98640.88;;;9.99;100.00
24154;BME280;12312;53.362;-1.518;2023-04-06T02:58:04;98639.06;;;9.88;100.00
24154;BME280;12312;53.362;-1.518;2023-04-06T03:00:50;98646.47;;;10.07;100.00
24154;BME280;12312;53.362;-1.518;2023-04-06T03:03:34;98643.41;;;9.89;100.00
24154;BME280;12312;53.362;-1.518;2023-04-06T03:06:18;98646.06;;;9.89;100.00
24154;BME280;12312;53.362;-1.518;2023-04-06T03:09:02;98645.00;;;9.92;100.00
24154;BME280;12312;53.362;-1.518;2023-04-06T03:11:46;98647.16;;;9.87;100.00
24154;BME280;12312;53.362;-1.518;2023-04-06T03:14:30;98652.47;;;9.87;100.00
24154;BME280;12312;53.362;-1.518;2023-04-06T03:17:14;98647.63;;;10.03;100.00
24154;BME280;12312;53.362;-1.518;2023-04-06T03:19:59;98643.81;;;10.07;100.00
24154;BME280;12312;53.362;-1.518;2023-04-06T03:22:43;98641.59;;;10.12;100.00
24154;BME280;12312;53.362;-1.518;2023-04-06T03:25:27;98634.84;;;10.08;100.00
24154;BME280;12312;53.362;-1.518;2023-04-06T03:28:11;98622.53;;;10.07;100.00
24154;BME280;12312;53.362;-1.518;2023-04-06T03:30:55;98617.78;;;10.10;100.00
24154;BME280;12312;53.362;-1.518;2023-04-06T03:33:39;98623.97;;;10.22;100.00
24154;BME280;12312;53.362;-1.518;2023-04-06T03:36:23;98608.00;;;10.22;100.00
24154;BME280;12312;53.362;-1.518;2023-04-06T03:39:06;98613.59;;;10.08;100.00
24154;BME280;12312;53.362;-1.518;2023-04-06T03:41:50;98615.25;;;10.09;100.00
24154;BME280;12312;53.362;-1.518;2023-04-06T03:44:34;98609.44;;;10.15;100.00
24154;BME280;12312;53.362;-1.518;2023-04-06T03:47:19;98609.94;;;10.09;100.00
24154;BME280;12312;53.362;-1.518;2023-04-06T03:50:03;98601.97;;;10.09;100.00
24154;BME280;12312;53.362;-1.518;2023-04-06T03:52:48;98603.94;;;10.07;100.00
24154;BME280;12312;53.362;-1.518;2023-04-06T03:55:31;98602.22;;;10.17;100.00
24154;BME280;12312;53.362;-1.518;2023-04-06T03:58:15;98601.72;;;10.12;100.00
24154;BME280;12312;53.362;-1.518;2023-04-06T04:00:59;98602.09;;;10.07;100.00
24154;BME280;12312;53.362;-1.518;2023-04-06T04:03:44;98605.34;;;10.22;100.00
24154;BME280;12312;53.362;-1.518;2023-04-06T04:06:28;98599.53;;;10.06;100.00
24154;BME280;12312;53.362;-1.518;2023-04-06T04:09:12;98595.22;;;10.16;100.00
24154;BME280;12312;53.362;-1.518;2023-04-06T04:11:56;98596.53;;;10.10;100.00
24154;BME280;12312;53.362;-1.518;2023-04-06T04:14:40;98598.56;;;10.18;100.00
24154;BME280;12312;53.362;-1.518;2023-04-06T04:17:24;98589.63;;;9.97;100.00
24154;BME280;12312;53.362;-1.518;2023-04-06T04:20:10;98586.47;;;10.03;100.00
24154;BME280;12312;53.362;-1.518;2023-04-06T04:22:54;98582.63;;;10.18;100.00
24154;BME280;12312;53.362;-1.518;2023-04-06T04:25:39;98586.63;;;10.12;100.00
24154;BME280;12312;53.362;-1.518;2023-04-06T04:28:23;98594.97;;;10.19;100.00
24154;BME280;12312;53.362;-1.518;2023-04-06T04:31:08;98585.78;;;10.12;100.00
24154;BME280;12312;53.362;-1.518;2023-04-06T04:33:52;98587.00;;;10.08;100.00
24154;BME280;12312;53.362;-1.518;2023-04-06T04:36:36;98589.16;;;10.14;100.00
24154;BME280;12312;53.362;-1.518;2023-04-06T04:39:20;98586.09;;;10.29;100.00
24154;BME280;12312;53.362;-1.518;2023-04-06T04:42:04;98586.25;;;10.17;100.00
24154;BME280;12312;53.362;-1.518;2023-04-06T04:44:48;98590.00;;;10.14;100.00
24154;BME280;12312;53.362;-1.518;2023-04-06T04:47:32;98581.44;;;10.11;100.00
24154;BME280;12312;53.362;-1.518;2023-04-06T04:50:16;98577.78;;;10.12;100.00
24154;BME280;12312;53.362;-1.518;2023-04-06T04:53:01;98583.09;;;10.12;100.00
24154;BME280;12312;53.362;-1.518;2023-04-06T04:55:49;98586.97;;;10.30;100.00
24154;BME280;12312;53.362;-1.518;2023-04-06T04:58:33;98578.34;;;10.37;100.00
24154;BME280;12312;53.362;-1.518;2023-04-06T05:01:17;98579.75;;;10.10;100.00
24154;BME280;12312;53.362;-1.518;2023-04-06T05:04:01;98582.38;;;9.99;100.00
24154;BME280;12312;53.362;-1.518;2023-04-06T05:06:47;98581.03;;;10.04;100.00
24154;BME280;12312;53.362;-1.518;2023-04-06T05:09:31;98576.22;;;9.98;100.00
24154;BME280;12312;53.362;-1.518;2023-04-06T05:12:15;98584.81;;;10.13;100.00
24154;BME280;12312;53.362;-1.518;2023-04-06T05:14:59;98583.25;;;9.99;100.00
24154;BME280;12312;53.362;-1.518;2023-04-06T05:17:43;98578.50;;;10.03;100.00
24154;BME280;12312;53.362;-1.518;2023-04-06T05:20:28;98588.41;;;10.34;100.00
24154;BME280;12312;53.362;-1.518;2023-04-06T05:23:13;98580.13;;;10.48;100.00
24154;BME280;12312;53.362;-1.518;2023-04-06T05:25:57;98587.38;;;10.46;100.00
24154;BME280;12312;53.362;-1.518;2023-04-06T05:28:41;98587.63;;;10.43;100.00
24154;BME280;12312;53.362;-1.518;2023-04-06T05:31:27;98594.19;;;10.70;100.00
24154;BME280;12312;53.362;-1.518;2023-04-06T05:34:12;98597.25;;;10.66;100.00
24154;BME280;12312;53.362;-1.518;2023-04-06T05:36:56;98594.28;;;10.80;100.00
24154;BME280;12312;53.362;-1.518;2023-04-06T05:39:40;98593.56;;;10.78;100.00
24154;BME280;12312;53.362;-1.518;2023-04-06T05:42:24;98587.81;;;10.62;100.00
24154;BME280;12312;53.362;-1.518;2023-04-06T05:45:10;98590.28;;;10.54;100.00
24154;BME280;12312;53.362;-1.518;2023-04-06T05:47:54;98598.06;;;10.35;100.00
24154;BME280;12312;53.362;-1.518;2023-04-06T05:50:38;98585.53;;;10.04;100.00
24154;BME280;12312;53.362;-1.518;2023-04-06T05:53:22;98594.00;;;9.98;100.00
24154;BME280;12312;53.362;-1.518;2023-04-06T05:56:08;98579.03;;;10.08;100.00
24154;BME280;12312;53.362;-1.518;2023-04-06T05:58:52;98569.81;;;10.54;100.00
24154;BME280;12312;53.362;-1.518;2023-04-06T06:01:36;98575.88;;;10.14;100.00
24154;BME280;12312;53.362;-1.518;2023-04-06T06:04:20;98573.81;;;10.60;100.00
24154;BME280;12312;53.362;-1.518;2023-04-06T06:07:04;98583.25;;;10.85;100.00
24154;BME280;12312;53.362;-1.518;2023-04-06T06:09:49;98583.16;;;10.75;100.00
24154;BME280;12312;53.362;-1.518;2023-04-06T06:12:33;98590.59;;;10.60;100.00
24154;BME280;12312;53.362;-1.518;2023-04-06T06:15:18;98584.44;;;10.60;100.00
24154;BME280;12312;53.362;-1.518;2023-04-06T06:18:02;98588.78;;;10.61;100.00
24154;BME280;12312;53.362;-1.518;2023-04-06T06:20:46;98584.69;;;10.57;100.00
24154;BME280;12312;53.362;-1.518;2023-04-06T06:23:30;98585.63;;;10.67;100.00
24154;BME280;12312;53.362;-1.518;2023-04-06T06:26:15;98589.75;;;10.28;100.00
24154;BME280;12312;53.362;-1.518;2023-04-06T06:28:59;98604.63;;;10.09;100.00
24154;BME280;12312;53.362;-1.518;2023-04-06T06:31:43;98592.06;;;10.11;100.00
24154;BME280;12312;53.362;-1.518;2023-04-06T06:34:27;98585.22;;;10.51;100.00
24154;BME280;12312;53.362;-1.518;2023-04-06T06:37:11;98581.69;;;10.08;100.00
24154;BME280;12312;53.362;-1.518;2023-04-06T06:39:55;98593.00;;;10.21;100.00
24154;BME280;12312;53.362;-1.518;2023-04-06T06:42:39;98594.72;;;10.22;100.00
24154;BME280;12312;53.362;-1.518;2023-04-06T06:45:23;98590.81;;;10.26;100.00
24154;BME280;12312;53.362;-1.518;2023-04-06T06:48:09;98601.59;;;10.13;100.00
24154;BME280;12312;53.362;-1.518;2023-04-06T06:50:53;98603.56;;;10.11;100.00
24154;BME280;12312;53.362;-1.518;2023-04-06T06:53:37;98602.94;;;10.08;100.00
24154;BME280;12312;53.362;-1.518;2023-04-06T06:56:21;98601.44;;;10.37;100.00
24154;BME280;12312;53.362;-1.518;2023-04-06T06:59:05;98605.69;;;10.06;100.00
24154;BME280;12312;53.362;-1.518;2023-04-06T07:01:50;98594.94;;;9.97;100.00
24154;BME280;12312;53.362;-1.518;2023-04-06T07:04:34;98597.41;;;9.89;100.00
24154;BME280;12312;53.362;-1.518;2023-04-06T07:07:18;98594.63;;;9.90;100.00
24154;BME280;12312;53.362;-1.518;2023-04-06T07:10:02;98602.22;;;9.95;100.00
24154;BME280;12312;53.362;-1.518;2023-04-06T07:12:46;98608.63;;;9.81;100.00
24154;BME280;12312;53.362;-1.518;2023-04-06T07:15:30;98603.66;;;9.88;100.00
24154;BME280;12312;53.362;-1.518;2023-04-06T07:18:14;98610.81;;;10.09;100.00
24154;BME280;12312;53.362;-1.518;2023-04-06T07:20:58;98615.25;;;9.98;100.00
24154;BME280;12312;53.362;-1.518;2023-04-06T07:23:42;98627.69;;;9.75;100.00
24154;BME280;12312;53.362;-1.518;2023-04-06T07:26:27;98634.56;;;9.67;100.00
24154;BME280;12312;53.362;-1.518;2023-04-06T07:29:11;98630.25;;;9.66;100.00
24154;BME280;12312;53.362;-1.518;2023-04-06T07:31:56;98642.19;;;9.49;100.00
24154;BME280;12312;53.362;-1.518;2023-04-06T07:34:40;98640.09;;;9.53;100.00
24154;BME280;12312;53.362;-1.518;2023-04-06T07:37:24;98638.97;;;9.22;100.00
24154;BME280;12312;53.362;-1.518;2023-04-06T07:40:09;98636.88;;;9.15;100.00
24154;BME280;12312;53.362;-1.518;2023-04-06T07:42:53;98633.06;;;9.19;100.00
24154;BME280;12312;53.362;-1.518;2023-04-06T07:45:38;98639.31;;;9.18;100.00
24154;BME280;12312;53.362;-1.518;2023-04-06T07:48:21;98639.06;;;9.10;100.00
24154;BME280;12312;53.362;-1.518;2023-04-06T07:51:07;98627.34;;;9.12;100.00
24154;BME280;12312;53.362;-1.518;2023-04-06T07:53:53;98616.13;;;9.08;100.00
24154;BME280;12312;53.362;-1.518;2023-04-06T07:56:37;98633.38;;;9.03;100.00
24154;BME280;12312;53.362;-1.518;2023-04-06T07:59:21;98624.94;;;9.09;100.00
24154;BME280;12312;53.362;-1.518;2023-04-06T08:02:05;98624.59;;;9.14;100.00
24154;BME280;12312;53.362;-1.518;2023-04-06T08:04:49;98645.31;;;9.08;100.00
24154;BME280;12312;53.362;-1.518;2023-04-06T08:07:34;98617.66;;;9.00;100.00
24154;BME280;12312;53.362;-1.518;2023-04-06T08:10:19;98616.59;;;9.02;100.00
24154;BME280;12312;53.362;-1.518;2023-04-06T08:13:03;98628.97;;;9.26;100.00
24154;BME280;12312;53.362;-1.518;2023-04-06T08:15:47;98621.25;;;9.34;100.00
24154;BME280;12312;53.362;-1.518;2023-04-06T08:18:31;98625.81;;;9.21;100.00
24154;BME280;12312;53.362;-1.518;2023-04-06T08:21:15;98627.81;;;9.52;100.00
24154;BME280;12312;53.362;-1.518;2023-04-06T08:24:00;98628.53;;;9.54;100.00
24154;BME280;12312;53.362;-1.518;2023-04-06T08:26:44;98632.41;;;9.72;100.00
24154;BME280;12312;53.362;-1.518;2023-04-06T08:29:28;98631.66;;;9.59;100.00
24154;BME280;12312;53.362;-1.518;2023-04-06T08:32:13;98638.31;;;9.75;100.00
24154;BME280;12312;53.362;-1.518;2023-04-06T08:34:56;98642.31;;;9.70;100.00
24154;BME280;12312;53.362;-1.518;2023-04-06T08:37:41;98620.78;;;9.40;100.00
24154;BME280;12312;53.362;-1.518;2023-04-06T08:40:25;98624.75;;;9.23;100.00
24154;BME280;12312;53.362;-1.518;2023-04-06T08:43:13;98631.88;;;9.34;100.00
24154;BME280;12312;53.362;-1.518;2023-04-06T08:45:58;98636.34;;;9.33;100.00
24154;BME280;12312;53.362;-1.518;2023-04-06T08:48:43;98634.56;;;9.56;100.00
24154;BME280;12312;53.362;-1.518;2023-04-06T08:51:28;98644.56;;;9.41;100.00
24154;BME280;12312;53.362;-1.518;2023-04-06T08:54:12;98657.06;;;9.17;100.00
24154;BME280;12312;53.362;-1.518;2023-04-06T08:56:57;98654.75;;;9.13;100.00
24154;BME280;12312;53.362;-1.518;2023-04-06T08:59:41;98662.25;;;9.19;100.00
24154;BME280;12312;53.362;-1.518;2023-04-06T09:02:26;98660.34;;;9.32;100.00
24154;BME280;12312;53.362;-1.518;2023-04-06T09:05:11;98663.59;;;9.81;100.00
24154;BME280;12312;53.362;-1.518;2023-04-06T09:07:56;98657.50;;;9.46;100.00
24154;BME280;12312;53.362;-1.518;2023-04-06T09:10:41;98667.78;;;9.61;100.00
24154;BME280;12312;53.362;-1.518;2023-04-06T09:13:25;98671.88;;;9.65;100.00
24154;BME280;12312;53.362;-1.518;2023-04-06T09:16:09;98671.28;;;9.73;100.00
24154;BME280;12312;53.362;-1.518;2023-04-06T09:18:53;98674.69;;;9.75;100.00
24154;BME280;12312;53.362;-1.518;2023-04-06T09:21:37;98668.84;;;9.59;100.00
24154;BME280;12312;53.362;-1.518;2023-04-06T09:24:23;98671.19;;;9.85;100.00
24154;BME280;12312;53.362;-1.518;2023-04-06T09:27:09;98673.81;;;9.74;100.00
24154;BME280;12312;53.362;-1.518;2023-04-06T09:30:03;98676.16;;;10.23;100.00
24154;BME280;12312;53.362;-1.518;2023-04-06T09:32:52;98672.75;;;10.43;100.00
24154;BME280;12312;53.362;-1.518;2023-04-06T09:35:36;98679.28;;;10.50;100.00
24154;BME280;12312;53.362;-1.518;2023-04-06T09:38:20;98681.00;;;10.29;100.00
24154;BME280;12312;53.362;-1.518;2023-04-06T09:41:04;98681.00;;;10.29;100.00
24154;BME280;12312;53.362;-1.518;2023-04-06T09:43:51;98672.19;;;10.71;100.00
24154;BME280;12312;53.362;-1.518;2023-04-06T09:46:38;98682.06;;;10.04;100.00
24154;BME280;12312;53.362;-1.518;2023-04-06T09:49:24;98676.41;;;10.42;100.00
24154;BME280;12312;53.362;-1.518;2023-04-06T09:52:11;98688.28;;;10.27;100.00
24154;BME280;12312;53.362;-1.518;2023-04-06T09:54:59;98684.34;;;10.53;100.00
24154;BME280;12312;53.362;-1.518;2023-04-06T09:58:01;98679.50;;;10.47;100.00
24154;BME280;12312;53.362;-1.518;2023-04-06T10:00:53;98679.41;;;10.48;100.00
24154;BME280;12312;53.362;-1.518;2023-04-06T10:04:13;98680.75;;;10.32;100.00
24154;BME280;12312;53.362;-1.518;2023-04-06T10:07:04;98668.81;;;10.26;100.00
24154;BME280;12312;53.362;-1.518;2023-04-06T10:09:50;98676.16;;;10.01;100.00
24154;BME280;12312;53.362;-1.518;2023-04-06T10:12:36;98676.41;;;9.98;100.00
24154;BME280;12312;53.362;-1.518;2023-04-06T10:15:21;98686.56;;;10.26;100.00
24154;BME280;12312;53.362;-1.518;2023-04-06T10:18:05;98682.66;;;10.41;100.00
24154;BME280;12312;53.362;-1.518;2023-04-06T10:21:00;98682.19;;;10.47;100.00
24154;BME280;12312;53.362;-1.518;2023-04-06T10:23:51;98679.63;;;10.01;100.00
24154;BME280;12312;53.362;-1.518;2023-04-06T10:26:36;98684.88;;;10.25;100.00
24154;BME280;12312;53.362;-1.518;2023-04-06T10:29:20;98695.63;;;10.34;100.00
24154;BME280;12312;53.362;-1.518;2023-04-06T10:32:04;98684.81;;;10.69;100.00
24154;BME280;12312;53.362;-1.518;2023-04-06T10:34:49;98698.09;;;10.80;100.00
24154;BME280;12312;53.362;-1.518;2023-04-06T10:37:53;98690.13;;;10.69;100.00
24154;BME280;12312;53.362;-1.518;2023-04-06T10:40:38;98691.81;;;10.70;100.00
24154;BME280;12312;53.362;-1.518;2023-04-06T10:43:23;98677.59;;;10.49;100.00
24154;BME280;12312;53.362;-1.518;2023-04-06T10:46:09;98684.97;;;10.88;100.00
24154;BME280;12312;53.362;-1.518;2023-04-06T10:48:53;98682.84;;;10.71;100.00
24154;BME280;12312;53.362;-1.518;2023-04-06T10:51:38;98700.03;;;10.78;100.00
24154;BME280;12312;53.362;-1.518;2023-04-06T10:54:24;98712.47;;;11.20;100.00
24154;BME280;12312;53.362;-1.518;2023-04-06T10:57:09;98703.59;;;10.99;100.00
24154;BME280;12312;53.362;-1.518;2023-04-06T10:59:53;98702.19;;;10.73;100.00
24154;BME280;12312;53.362;-1.518;2023-04-06T11:02:37;98704.13;;;10.71;100.00
24154;BME280;12312;53.362;-1.518;2023-04-06T11:05:22;98702.41;;;11.24;100.00
24154;BME280;12312;53.362;-1.518;2023-04-06T11:08:07;98709.25;;;11.37;100.00
24154;BME280;12312;53.362;-1.518;2023-04-06T11:10:51;98711.84;;;10.85;100.00
24154;BME280;12312;53.362;-1.518;2023-04-06T11:16:25;98712.59;;;10.87;100.00
24154;BME280;12312;53.362;-1.518;2023-04-06T11:19:09;98714.84;;;11.03;100.00
24154;BME280;12312;53.362;-1.518;2023-04-06T11:21:54;98713.31;;;10.89;99.38
24154;BME280;12312;53.362;-1.518;2023-04-06T11:24:38;98718.41;;;10.81;100.00
24154;BME280;12312;53.362;-1.518;2023-04-06T11:27:22;98719.59;;;11.51;99.10
24154;BME280;12312;53.362;-1.518;2023-04-06T11:30:06;98717.91;;;12.12;96.36
24154;BME280;12312;53.362;-1.518;2023-04-06T11:32:51;98721.56;;;12.20;96.34
24154;BME280;12312;53.362;-1.518;2023-04-06T11:35:34;98727.88;;;12.49;95.43
24154;BME280;12312;53.362;-1.518;2023-04-06T11:38:19;98730.16;;;12.24;87.79
24154;BME280;12312;53.362;-1.518;2023-04-06T11:41:04;98746.81;;;12.77;80.45
24154;BME280;12312;53.362;-1.518;2023-04-06T11:43:49;98742.81;;;12.62;81.90
24154;BME280;12312;53.362;-1.518;2023-04-06T11:46:33;98741.91;;;11.91;82.21
24154;BME280;12312;53.362;-1.518;2023-04-06T11:49:17;98752.09;;;12.67;83.47
24154;BME280;12312;53.362;-1.518;2023-04-06T11:52:02;98752.75;;;12.90;82.00
24154;BME280;12312;53.362;-1.518;2023-04-06T11:54:48;98753.25;;;13.80;78.79
24154;BME280;12312;53.362;-1.518;2023-04-06T11:57:33;98756.91;;;13.22;76.02
24154;BME280;12312;53.362;-1.518;2023-04-06T12:00:18;98769.69;;;12.70;79.10
24154;BME280;12312;53.362;-1.518;2023-04-06T12:03:02;98764.72;;;12.55;79.39
24154;BME280;12312;53.362;-1.518;2023-04-06T12:05:46;98761.47;;;12.52;81.14
24154;BME280;12312;53.362;-1.518;2023-04-06T12:08:30;98769.31;;;12.84;81.45
24154;BME280;12312;53.362;-1.518;2023-04-06T12:11:14;98768.88;;;12.79;81.54
24154;BME280;12312;53.362;-1.518;2023-04-06T12:13:58;98775.31;;;12.36;82.62
24154;BME280;12312;53.362;-1.518;2023-04-06T12:16:45;98772.56;;;13.46;81.48
24154;BME280;12312;53.362;-1.518;2023-04-06T12:19:29;98762.13;;;13.24;78.70
24154;BME280;12312;53.362;-1.518;2023-04-06T12:22:13;98769.44;;;13.69;79.15
24154;BME280;12312;53.362;-1.518;2023-04-06T12:24:58;98774.47;;;13.25;77.49
24154;BME280;12312;53.362;-1.518;2023-04-06T12:27:42;98777.75;;;12.89;78.14
24154;BME280;12312;53.362;-1.518;2023-04-06T12:30:26;98768.97;;;12.07;79.90
24154;BME280;12312;53.362;-1.518;2023-04-06T12:33:11;98776.97;;;11.87;82.76
24154;BME280;12312;53.362;-1.518;2023-04-06T12:35:55;98784.88;;;12.39;81.76
24154;BME280;12312;53.362;-1.518;2023-04-06T12:38:40;98792.00;;;12.69;81.75
24154;BME280;12312;53.362;-1.518;2023-04-06T12:41:24;98788.13;;;13.12;78.84
24154;BME280;12312;53.362;-1.518;2023-04-06T12:44:08;98800.38;;;12.04;80.08
24154;BME280;12312;53.362;-1.518;2023-04-06T12:46:52;98800.63;;;12.21;81.18
24154;BME280;12312;53.362;-1.518;2023-04-06T12:49:36;98797.19;;;12.10;82.28
24154;BME280;12312;53.362;-1.518;2023-04-06T12:52:20;98808.28;;;12.56;79.74
24154;BME280;12312;53.362;-1.518;2023-04-06T12:55:05;98795.13;;;11.61;84.66
24154;BME280;12312;53.362;-1.518;2023-04-06T12:57:49;98802.69;;;12.69;83.81
24154;BME280;12312;53.362;-1.518;2023-04-06T13:00:33;98801.34;;;12.74;83.89
24154;BME280;12312;53.362;-1.518;2023-04-06T13:03:18;98807.34;;;12.36;89.38
24154;BME280;12312;53.362;-1.518;2023-04-06T13:06:02;98814.44;;;13.17;86.30
24154;BME280;12312;53.362;-1.518;2023-04-06T13:08:47;98797.72;;;12.04;83.92
24154;BME280;12312;53.362;-1.518;2023-04-06T13:11:33;98819.16;;;12.43;83.40
24154;BME280;12312;53.362;-1.518;2023-04-06T13:14:18;98821.63;;;12.35;81.93
24154;BME280;12312;53.362;-1.518;2023-04-06T13:17:02;98816.63;;;12.21;79.21
24154;BME280;12312;53.362;-1.518;2023-04-06T13:19:46;98816.63;;;12.21;80.42
24154;BME280;12312;53.362;-1.518;2023-04-06T13:22:30;98818.34;;;11.81;81.92
24154;BME280;12312;53.362;-1.518;2023-04-06T13:25:14;98825.22;;;11.84;83.22
24154;BME280;12312;53.362;-1.518;2023-04-06T13:27:58;98816.56;;;11.71;82.17
24154;BME280;12312;53.362;-1.518;2023-04-06T13:30:43;98831.69;;;12.22;82.81
24154;BME280;12312;53.362;-1.518;2023-04-06T13:33:28;98803.28;;;11.49;84.35
24154;BME280;12312;53.362;-1.518;2023-04-06T13:36:12;98818.03;;;11.64;87.57
24154;BME280;12312;53.362;-1.518;2023-04-06T13:38:56;98817.69;;;11.89;85.43
24154;BME280;12312;53.362;-1.518;2023-04-06T13:41:40;98812.09;;;11.60;84.83
24154;BME280;12312;53.362;-1.518;2023-04-06T13:44:25;98821.94;;;11.49;84.19
24154;BME280;12312;53.362;-1.518;2023-04-06T13:47:10;98840.00;;;11.45;87.42
24154;BME280;12312;53.362;-1.518;2023-04-06T13:49:54;98840.97;;;10.79;95.68
24154;BME280;12312;53.362;-1.518;2023-04-06T13:52:39;98857.53;;;10.61;100.00
24154;BME280;12312;53.362;-1.518;2023-04-06T13:55:23;98854.63;;;10.53;100.00
24154;BME280;12312;53.362;-1.518;2023-04-06T13:58:10;98848.81;;;10.59;99.56
24154;BME280;12312;53.362;-1.518;2023-04-06T14:00:54;98853.16;;;10.71;99.99
24154;BME280;12312;53.362;-1.518;2023-04-06T14:03:38;98848.56;;;10.40;100.00
24154;BME280;12312;53.362;-1.518;2023-04-06T14:06:25;98852.22;;;10.39;100.00
24154;BME280;12312;53.362;-1.518;2023-04-06T14:09:10;98851.72;;;10.45;100.00
24154;BME280;12312;53.362;-1.518;2023-04-06T14:11:55;98850.75;;;10.68;100.00
24154;BME280;12312;53.362;-1.518;2023-04-06T14:14:39;98858.25;;;10.74;100.00
24154;BME280;12312;53.362;-1.518;2023-04-06T14:17:23;98846.03;;;10.71;100.00
24154;BME280;12312;53.362;-1.518;2023-04-06T14:20:07;98857.53;;;10.72;100.00